Anatife — FGE8389 — position and weather

sailwx.info

Track history (hours):
 
Tides and Currents Weather Stations Pressure Air Temp Water Temp Dewpoint Dewpoint Depression Visibility Wind Speed Wind Dir Waves Ship Positions

Anatife

Last reported at 2016-Jun-29 18:15 UTC. Time now 2016-Jun-30 15:54 UTC.
Position N 47°18' W 002°05'.

Length 41 m; draft 2.3 m.

Type: Tanker. MMSI: 227681520.

Date/timePositionNaut miles runAvg speedWind from/ knotsBaromVisibWave heightAir tempDewpointWater temp
2016-Jun-29 18:15N 47°18' W 002°05'0 0.0
2016-Jun-29 17:33N 47°18' W 002°05'0 0.0
2016-Jun-29 16:33N 47°18' W 002°05'0 0.0
2016-Jun-29 15:33N 47°18' W 002°05'0 0.0
2016-Jun-29 14:33N 47°18' W 002°05'0 0.0
2016-Jun-29 13:33N 47°18' W 002°05'6 6.0
2016-Jun-29 12:33N 47°15' W 002°13'1010.0
2016-Jun-29 11:33N 47°07' W 002°21'19 8.9
2016-Jun-29 09:23N 46°48' W 002°23'13 0.7
2016-Jun-28 14:24N 47°01' W 002°27'8 9.8
2016-Jun-28 13:33N 47°08' W 002°21'1010.2
2016-Jun-28 12:33N 47°16' W 002°12'5 5.0
2016-Jun-28 11:33N 47°18' W 002°05'0 0.0
2016-Jun-28 10:33N 47°18' W 002°05'0 0.0
2016-Jun-28 09:33N 47°18' W 002°05'0 0.0
2016-Jun-28 08:33N 47°18' W 002°05'0 0.0
2016-Jun-28 07:33N 47°18' W 002°05'0 0.0
2016-Jun-28 06:33N 47°18' W 002°05'0 0.0
2016-Jun-28 04:33N 47°18' W 002°05'  
Track history (hours):
 
Tides and Currents Weather Stations Pressure Air Temp Water Temp Dewpoint Dewpoint Depression Visibility Wind Speed Wind Dir Waves Ship Positions

Anatife

Last reported at 2016-Jun-29 18:15 UTC. Time now 2016-Jun-30 15:54 UTC.
Position N 47°18' W 002°05'.

Length 41 m; draft 2.3 m.

Type: Tanker. MMSI: 227681520.

Date/timePositionNaut miles runAvg speedWind from/ knotsBaromVisibWave heightAir tempDewpointWater temp
2016-Jun-29 18:15N 47°18' W 002°05'0 0.0
2016-Jun-29 17:33N 47°18' W 002°05'0 0.0
2016-Jun-29 16:33N 47°18' W 002°05'0 0.0
2016-Jun-29 15:33N 47°18' W 002°05'0 0.0
2016-Jun-29 14:33N 47°18' W 002°05'0 0.0
2016-Jun-29 13:33N 47°18' W 002°05'6 6.0
2016-Jun-29 12:33N 47°15' W 002°13'1010.0
2016-Jun-29 11:33N 47°07' W 002°21'19 8.9
2016-Jun-29 09:23N 46°48' W 002°23'13 0.7
2016-Jun-28 14:24N 47°01' W 002°27'8 9.8
2016-Jun-28 13:33N 47°08' W 002°21'1010.2
2016-Jun-28 12:33N 47°16' W 002°12'5 5.0
2016-Jun-28 11:33N 47°18' W 002°05'0 0.0
2016-Jun-28 10:33N 47°18' W 002°05'0 0.0
2016-Jun-28 09:33N 47°18' W 002°05'0 0.0
2016-Jun-28 08:33N 47°18' W 002°05'0 0.0
2016-Jun-28 07:33N 47°18' W 002°05'0 0.0
2016-Jun-28 06:33N 47°18' W 002°05'0 0.0
2016-Jun-28 04:33N 47°18' W 002°05'  

Dump ship's entire track history